This is the latest recevied weather packets stored in our database for station/object 9W2TBJ-4. If no packets are shown the sender has not sent any weather packets the latest 10 day(s).
| Time | Temp. | Humidity | Pressure | Rain* | Wind** | Luminosity | Snow |
|---|---|---|---|---|---|---|---|
| 1777546960 | 33.33° C | 57% | 1009.3 hPa | - | - | - | - |
| 1777545760 | 31.67° C | 62% | 1008.9 hPa | - | - | - | - |
| 1777545311 | 32.22° C | 61% | 1009.1 hPa | - | - | - | - |
| 1777544113 | 31.67° C | 60% | 1009 hPa | - | - | - | - |
| 1777542911 | 31.67° C | 62% | 1009.1 hPa | - | - | - | - |
| 1777541711 | 32.22° C | 61% | 1009 hPa | - | - | - | - |
| 1777540511 | 32.22° C | 60% | 1008.5 hPa | - | - | - | - |
| 1777539314 | 32.78° C | 62% | 1008.5 hPa | - | - | - | - |
| 1777538110 | 33.89° C | 57% | 1008.2 hPa | - | - | - | - |
| 1777536910 | 33.33° C | 58% | 1008.1 hPa | - | - | - | - |
| 1777533310 | 33.89° C | 56% | 1008.7 hPa | - | - | - | - |
| 1777531714 | 33.33° C | 57% | 1009.2 hPa | - | - | - | - |
| 1777530909 | 33.33° C | 57% | 1009.2 hPa | - | - | - | - |
| 1777529709 | 33.89° C | 56% | 1009.3 hPa | - | - | - | - |
| 1777528509 | 33.89° C | 56% | 1009.8 hPa | - | - | - | - |
| 1777527309 | 33.89° C | 57% | 1010 hPa | - | - | - | - |
| 1777526109 | 33.33° C | 58% | 1010.2 hPa | - | - | - | - |
| 1777524909 | 33.33° C | 57% | 1010.5 hPa | - | - | - | - |
| 1777523709 | 33.33° C | 57% | 1011.1 hPa | - | - | - | - |
| 1777522508 | 33.33° C | 57% | 1011.4 hPa | - | - | - | - |
| 1777521309 | 33.33° C | 57% | 1011.5 hPa | - | - | - | - |
| 1777520108 | 32.78° C | 58% | 1011.6 hPa | - | - | - | - |
| 1777518908 | 33.33° C | 57% | 1011.6 hPa | - | - | - | - |
| 1777517708 | 33.33° C | 58% | 1011.7 hPa | - | - | - | - |
| 1777516509 | 32.78° C | 59% | 1012 hPa | - | - | - | - |
* Rain since midnight (hover to see other rain measurements)
** Current wind speed in m/s (hover to see current wind gust speed)